sensor_id;sensor_type;location;lat;lon;timestamp;temperature;humidity
45042;DHT22;30779;52.096;4.410;2022-07-11T00:00:14;17.00;99.90
45042;DHT22;30779;52.096;4.410;2022-07-11T00:03:14;17.10;99.90
45042;DHT22;30779;52.096;4.410;2022-07-11T00:06:15;17.10;99.90
45042;DHT22;30779;52.096;4.410;2022-07-11T00:09:16;17.20;99.90
45042;DHT22;30779;52.096;4.410;2022-07-11T00:12:17;17.30;99.90
45042;DHT22;30779;52.096;4.410;2022-07-11T00:15:20;17.20;99.90
45042;DHT22;30779;52.096;4.410;2022-07-11T00:18:21;17.30;99.90
45042;DHT22;30779;52.096;4.410;2022-07-11T00:21:24;17.30;99.90
45042;DHT22;30779;52.096;4.410;2022-07-11T00:24:24;17.30;99.90
45042;DHT22;30779;52.096;4.410;2022-07-11T00:27:25;17.30;99.90
45042;DHT22;30779;52.096;4.410;2022-07-11T00:30:26;17.40;99.90
45042;DHT22;30779;52.096;4.410;2022-07-11T00:33:26;17.40;99.90
45042;DHT22;30779;52.096;4.410;2022-07-11T00:36:27;17.40;99.90
45042;DHT22;30779;52.096;4.410;2022-07-11T00:39:28;17.40;99.90
45042;DHT22;30779;52.096;4.410;2022-07-11T00:42:29;17.40;99.90
45042;DHT22;30779;52.096;4.410;2022-07-11T00:45:29;17.50;99.90
45042;DHT22;30779;52.096;4.410;2022-07-11T00:48:30;17.50;99.90
45042;DHT22;30779;52.096;4.410;2022-07-11T00:51:31;17.50;99.90
45042;DHT22;30779;52.096;4.410;2022-07-11T00:54:32;17.50;99.90
45042;DHT22;30779;52.096;4.410;2022-07-11T00:57:33;17.50;99.90
45042;DHT22;30779;52.096;4.410;2022-07-11T01:00:34;17.50;99.90
45042;DHT22;30779;52.096;4.410;2022-07-11T01:03:35;17.50;99.90
45042;DHT22;30779;52.096;4.410;2022-07-11T01:06:36;17.50;99.90
45042;DHT22;30779;52.096;4.410;2022-07-11T01:09:36;17.50;99.90
45042;DHT22;30779;52.096;4.410;2022-07-11T01:12:37;17.60;99.90
45042;DHT22;30779;52.096;4.410;2022-07-11T01:15:38;17.60;99.90
45042;DHT22;30779;52.096;4.410;2022-07-11T01:18:47;17.60;99.90
45042;DHT22;30779;52.096;4.410;2022-07-11T01:21:49;17.60;99.90
45042;DHT22;30779;52.096;4.410;2022-07-11T01:24:51;17.70;99.90
45042;DHT22;30779;52.096;4.410;2022-07-11T01:27:51;17.80;99.90
45042;DHT22;30779;52.096;4.410;2022-07-11T01:30:52;17.70;99.90
45042;DHT22;30779;52.096;4.410;2022-07-11T01:33:53;17.70;99.90
45042;DHT22;30779;52.096;4.410;2022-07-11T01:36:53;17.80;99.90
45042;DHT22;30779;52.096;4.410;2022-07-11T01:39:54;17.80;99.90
45042;DHT22;30779;52.096;4.410;2022-07-11T01:42:55;17.80;99.90
45042;DHT22;30779;52.096;4.410;2022-07-11T01:45:56;17.80;99.90
45042;DHT22;30779;52.096;4.410;2022-07-11T01:48:57;17.80;99.90
45042;DHT22;30779;52.096;4.410;2022-07-11T01:51:57;17.80;99.90
45042;DHT22;30779;52.096;4.410;2022-07-11T01:54:58;17.80;99.90
45042;DHT22;30779;52.096;4.410;2022-07-11T01:57:59;17.80;99.90
45042;DHT22;30779;52.096;4.410;2022-07-11T02:00:59;17.80;99.90
45042;DHT22;30779;52.096;4.410;2022-07-11T02:04:00;17.80;99.90
45042;DHT22;30779;52.096;4.410;2022-07-11T02:07:01;17.80;99.90
45042;DHT22;30779;52.096;4.410;2022-07-11T02:10:01;17.80;99.90
45042;DHT22;30779;52.096;4.410;2022-07-11T02:13:02;17.80;99.90
45042;DHT22;30779;52.096;4.410;2022-07-11T02:16:03;17.80;99.90
45042;DHT22;30779;52.096;4.410;2022-07-11T02:19:04;17.80;99.90
45042;DHT22;30779;52.096;4.410;2022-07-11T02:22:05;17.80;99.90
45042;DHT22;30779;52.096;4.410;2022-07-11T02:25:07;17.70;99.90
45042;DHT22;30779;52.096;4.410;2022-07-11T02:28:08;17.60;99.90
45042;DHT22;30779;52.096;4.410;2022-07-11T02:31:09;17.60;99.90
45042;DHT22;30779;52.096;4.410;2022-07-11T02:34:09;17.60;99.90
45042;DHT22;30779;52.096;4.410;2022-07-11T02:37:10;17.60;99.90
45042;DHT22;30779;52.096;4.410;2022-07-11T02:40:11;17.60;99.90
45042;DHT22;30779;52.096;4.410;2022-07-11T02:43:12;17.70;99.90
45042;DHT22;30779;52.096;4.410;2022-07-11T02:46:12;17.70;99.90
45042;DHT22;30779;52.096;4.410;2022-07-11T02:49:13;17.60;99.90
45042;DHT22;30779;52.096;4.410;2022-07-11T02:52:14;17.60;99.90
45042;DHT22;30779;52.096;4.410;2022-07-11T02:55:15;17.60;99.90
45042;DHT22;30779;52.096;4.410;2022-07-11T02:58:15;17.60;99.90
45042;DHT22;30779;52.096;4.410;2022-07-11T03:01:16;17.60;99.90
45042;DHT22;30779;52.096;4.410;2022-07-11T03:04:17;17.60;99.90
45042;DHT22;30779;52.096;4.410;2022-07-11T03:07:17;17.60;99.90
45042;DHT22;30779;52.096;4.410;2022-07-11T03:10:18;17.60;99.90
45042;DHT22;30779;52.096;4.410;2022-07-11T03:13:19;17.50;99.90
45042;DHT22;30779;52.096;4.410;2022-07-11T03:16:19;17.50;99.90
45042;DHT22;30779;52.096;4.410;2022-07-11T03:19:20;17.50;99.90
45042;DHT22;30779;52.096;4.410;2022-07-11T03:22:21;17.40;99.90
45042;DHT22;30779;52.096;4.410;2022-07-11T03:25:23;17.40;99.90
45042;DHT22;30779;52.096;4.410;2022-07-11T03:28:24;17.50;99.90
45042;DHT22;30779;52.096;4.410;2022-07-11T03:31:24;17.50;99.90
45042;DHT22;30779;52.096;4.410;2022-07-11T03:34:25;17.40;99.90
45042;DHT22;30779;52.096;4.410;2022-07-11T03:37:25;17.40;99.90
45042;DHT22;30779;52.096;4.410;2022-07-11T03:40:26;17.50;99.90
45042;DHT22;30779;52.096;4.410;2022-07-11T03:43:27;17.50;99.90
45042;DHT22;30779;52.096;4.410;2022-07-11T03:46:27;17.50;99.90
45042;DHT22;30779;52.096;4.410;2022-07-11T03:49:28;17.50;99.90
45042;DHT22;30779;52.096;4.410;2022-07-11T03:52:28;17.50;99.90
45042;DHT22;30779;52.096;4.410;2022-07-11T03:55:30;17.50;99.90
45042;DHT22;30779;52.096;4.410;2022-07-11T03:58:31;17.50;99.90
45042;DHT22;30779;52.096;4.410;2022-07-11T04:01:32;17.50;99.90
45042;DHT22;30779;52.096;4.410;2022-07-11T04:04:33;17.50;99.90
45042;DHT22;30779;52.096;4.410;2022-07-11T04:07:33;17.50;99.90
45042;DHT22;30779;52.096;4.410;2022-07-11T04:10:34;17.50;99.90
45042;DHT22;30779;52.096;4.410;2022-07-11T04:13:35;17.40;99.90
45042;DHT22;30779;52.096;4.410;2022-07-11T04:16:36;17.40;99.90
45042;DHT22;30779;52.096;4.410;2022-07-11T04:19:36;17.40;99.90
45042;DHT22;30779;52.096;4.410;2022-07-11T04:22:37;17.30;99.90
45042;DHT22;30779;52.096;4.410;2022-07-11T04:25:38;17.30;99.90
45042;DHT22;30779;52.096;4.410;2022-07-11T04:28:39;17.40;99.90
45042;DHT22;30779;52.096;4.410;2022-07-11T04:31:39;17.30;99.90
45042;DHT22;30779;52.096;4.410;2022-07-11T04:34:40;17.30;99.90
45042;DHT22;30779;52.096;4.410;2022-07-11T04:37:40;17.30;99.90
45042;DHT22;30779;52.096;4.410;2022-07-11T04:40:41;17.30;99.90
45042;DHT22;30779;52.096;4.410;2022-07-11T04:43:42;17.30;99.90
45042;DHT22;30779;52.096;4.410;2022-07-11T04:46:43;17.30;99.90
45042;DHT22;30779;52.096;4.410;2022-07-11T04:49:43;17.30;99.90
45042;DHT22;30779;52.096;4.410;2022-07-11T04:52:47;17.30;99.90
45042;DHT22;30779;52.096;4.410;2022-07-11T04:55:47;17.40;99.90
45042;DHT22;30779;52.096;4.410;2022-07-11T04:58:48;17.30;99.90
45042;DHT22;30779;52.096;4.410;2022-07-11T05:01:48;17.30;99.90
45042;DHT22;30779;52.096;4.410;2022-07-11T05:04:50;17.20;99.90
45042;DHT22;30779;52.096;4.410;2022-07-11T05:07:51;17.20;99.90
45042;DHT22;30779;52.096;4.410;2022-07-11T05:10:51;17.20;99.90
45042;DHT22;30779;52.096;4.410;2022-07-11T05:13:52;17.20;99.90
45042;DHT22;30779;52.096;4.410;2022-07-11T05:16:53;17.20;99.90
45042;DHT22;30779;52.096;4.410;2022-07-11T05:19:53;17.20;99.90
45042;DHT22;30779;52.096;4.410;2022-07-11T05:22:54;17.20;99.90
45042;DHT22;30779;52.096;4.410;2022-07-11T05:25:54;17.20;99.90
45042;DHT22;30779;52.096;4.410;2022-07-11T05:28:55;17.10;99.90
45042;DHT22;30779;52.096;4.410;2022-07-11T05:31:56;17.20;99.90
45042;DHT22;30779;52.096;4.410;2022-07-11T05:34:57;17.20;99.90
45042;DHT22;30779;52.096;4.410;2022-07-11T05:37:58;17.20;99.90
45042;DHT22;30779;52.096;4.410;2022-07-11T05:40:59;17.20;99.90
45042;DHT22;30779;52.096;4.410;2022-07-11T05:44:00;17.30;99.90
45042;DHT22;30779;52.096;4.410;2022-07-11T05:47:02;17.30;99.90
45042;DHT22;30779;52.096;4.410;2022-07-11T05:50:03;17.40;99.90
45042;DHT22;30779;52.096;4.410;2022-07-11T05:53:04;17.40;99.90
45042;DHT22;30779;52.096;4.410;2022-07-11T05:56:05;17.30;99.90
45042;DHT22;30779;52.096;4.410;2022-07-11T05:59:07;17.30;99.90
45042;DHT22;30779;52.096;4.410;2022-07-11T06:02:09;17.30;99.90
45042;DHT22;30779;52.096;4.410;2022-07-11T06:05:10;17.30;99.90
45042;DHT22;30779;52.096;4.410;2022-07-11T06:08:12;17.30;99.90
45042;DHT22;30779;52.096;4.410;2022-07-11T06:11:31;17.40;99.90
45042;DHT22;30779;52.096;4.410;2022-07-11T06:14:31;17.40;99.90
45042;DHT22;30779;52.096;4.410;2022-07-11T06:17:32;17.50;99.90
45042;DHT22;30779;52.096;4.410;2022-07-11T06:20:32;17.50;99.90
45042;DHT22;30779;52.096;4.410;2022-07-11T06:23:33;17.50;99.90
45042;DHT22;30779;52.096;4.410;2022-07-11T06:26:37;17.30;99.90
45042;DHT22;30779;52.096;4.410;2022-07-11T06:29:38;17.40;99.90
45042;DHT22;30779;52.096;4.410;2022-07-11T06:32:39;17.40;99.90
45042;DHT22;30779;52.096;4.410;2022-07-11T06:35:40;17.50;99.90
45042;DHT22;30779;52.096;4.410;2022-07-11T06:38:40;17.50;99.90
45042;DHT22;30779;52.096;4.410;2022-07-11T06:41:41;17.50;99.90
45042;DHT22;30779;52.096;4.410;2022-07-11T06:44:41;17.50;99.90
45042;DHT22;30779;52.096;4.410;2022-07-11T06:47:42;17.60;99.90
45042;DHT22;30779;52.096;4.410;2022-07-11T06:50:43;17.70;99.90
45042;DHT22;30779;52.096;4.410;2022-07-11T06:53:44;17.80;99.90
45042;DHT22;30779;52.096;4.410;2022-07-11T06:56:44;17.80;99.90
45042;DHT22;30779;52.096;4.410;2022-07-11T06:59:45;17.80;99.90
45042;DHT22;30779;52.096;4.410;2022-07-11T07:02:46;17.80;99.90
45042;DHT22;30779;52.096;4.410;2022-07-11T07:05:47;17.80;99.90
45042;DHT22;30779;52.096;4.410;2022-07-11T07:08:48;17.80;99.90
45042;DHT22;30779;52.096;4.410;2022-07-11T07:11:48;17.90;99.90
45042;DHT22;30779;52.096;4.410;2022-07-11T07:14:49;17.90;99.90
45042;DHT22;30779;52.096;4.410;2022-07-11T07:17:50;18.00;99.90
45042;DHT22;30779;52.096;4.410;2022-07-11T07:20:51;18.00;99.90
45042;DHT22;30779;52.096;4.410;2022-07-11T07:23:52;18.10;99.90
45042;DHT22;30779;52.096;4.410;2022-07-11T07:26:53;18.10;99.90
45042;DHT22;30779;52.096;4.410;2022-07-11T07:29:53;18.20;99.90
45042;DHT22;30779;52.096;4.410;2022-07-11T07:32:55;18.10;99.90
45042;DHT22;30779;52.096;4.410;2022-07-11T07:35:55;18.20;99.90
45042;DHT22;30779;52.096;4.410;2022-07-11T07:38:56;18.20;99.90
45042;DHT22;30779;52.096;4.410;2022-07-11T07:41:57;18.20;99.90
45042;DHT22;30779;52.096;4.410;2022-07-11T07:44:57;18.10;99.90
45042;DHT22;30779;52.096;4.410;2022-07-11T07:47:58;18.10;99.90
45042;DHT22;30779;52.096;4.410;2022-07-11T07:50:59;18.10;99.90
45042;DHT22;30779;52.096;4.410;2022-07-11T07:54:00;18.10;99.90
45042;DHT22;30779;52.096;4.410;2022-07-11T07:57:00;18.20;99.90
45042;DHT22;30779;52.096;4.410;2022-07-11T08:00:05;18.20;99.90
45042;DHT22;30779;52.096;4.410;2022-07-11T08:03:24;18.30;99.90
45042;DHT22;30779;52.096;4.410;2022-07-11T08:06:24;18.40;99.90
45042;DHT22;30779;52.096;4.410;2022-07-11T08:09:26;18.40;99.90
45042;DHT22;30779;52.096;4.410;2022-07-11T08:12:27;18.40;99.90
45042;DHT22;30779;52.096;4.410;2022-07-11T08:15:27;18.40;99.90
45042;DHT22;30779;52.096;4.410;2022-07-11T08:18:28;18.50;99.90
45042;DHT22;30779;52.096;4.410;2022-07-11T08:21:29;18.50;99.90
45042;DHT22;30779;52.096;4.410;2022-07-11T08:24:30;18.50;99.90
45042;DHT22;30779;52.096;4.410;2022-07-11T08:27:31;18.50;99.90
45042;DHT22;30779;52.096;4.410;2022-07-11T08:30:32;18.70;99.90
45042;DHT22;30779;52.096;4.410;2022-07-11T08:33:33;18.70;99.90
45042;DHT22;30779;52.096;4.410;2022-07-11T08:36:33;18.70;99.90
45042;DHT22;30779;52.096;4.410;2022-07-11T08:39:35;18.60;99.90
45042;DHT22;30779;52.096;4.410;2022-07-11T08:42:44;18.60;99.90
45042;DHT22;30779;52.096;4.410;2022-07-11T08:45:45;18.50;99.90
45042;DHT22;30779;52.096;4.410;2022-07-11T08:48:46;18.50;99.90
45042;DHT22;30779;52.096;4.410;2022-07-11T08:51:47;18.70;99.90
45042;DHT22;30779;52.096;4.410;2022-07-11T08:54:48;18.80;99.90
45042;DHT22;30779;52.096;4.410;2022-07-11T08:57:48;19.00;99.90
45042;DHT22;30779;52.096;4.410;2022-07-11T09:00:50;19.10;99.90
45042;DHT22;30779;52.096;4.410;2022-07-11T09:03:51;19.10;99.90
45042;DHT22;30779;52.096;4.410;2022-07-11T09:06:53;19.20;99.90
45042;DHT22;30779;52.096;4.410;2022-07-11T09:09:54;19.30;99.90
45042;DHT22;30779;52.096;4.410;2022-07-11T09:16:07;19.60;99.90
45042;DHT22;30779;52.096;4.410;2022-07-11T09:19:25;19.70;99.90
45042;DHT22;30779;52.096;4.410;2022-07-11T09:22:26;19.60;99.90
45042;DHT22;30779;52.096;4.410;2022-07-11T09:25:45;19.70;99.90
45042;DHT22;30779;52.096;4.410;2022-07-11T09:29:19;19.90;99.90
45042;DHT22;30779;52.096;4.410;2022-07-11T09:32:27;19.90;99.90
45042;DHT22;30779;52.096;4.410;2022-07-11T09:35:33;20.00;99.90
45042;DHT22;30779;52.096;4.410;2022-07-11T09:38:56;20.10;99.90
45042;DHT22;30779;52.096;4.410;2022-07-11T09:41:57;20.30;99.90
45042;DHT22;30779;52.096;4.410;2022-07-11T09:45:10;20.40;99.90
45042;DHT22;30779;52.096;4.410;2022-07-11T09:48:12;20.50;99.90
45042;DHT22;30779;52.096;4.410;2022-07-11T09:51:19;20.50;99.90
45042;DHT22;30779;52.096;4.410;2022-07-11T09:54:20;20.40;99.90
45042;DHT22;30779;52.096;4.410;2022-07-11T09:57:34;20.60;99.90
45042;DHT22;30779;52.096;4.410;2022-07-11T10:00:37;20.90;99.90
45042;DHT22;30779;52.096;4.410;2022-07-11T10:03:37;21.00;99.90
45042;DHT22;30779;52.096;4.410;2022-07-11T10:06:38;20.90;99.90
45042;DHT22;30779;52.096;4.410;2022-07-11T10:09:39;21.00;99.90
45042;DHT22;30779;52.096;4.410;2022-07-11T10:12:40;20.90;99.90
45042;DHT22;30779;52.096;4.410;2022-07-11T10:15:41;21.10;99.90
45042;DHT22;30779;52.096;4.410;2022-07-11T10:19:47;21.20;99.90
45042;DHT22;30779;52.096;4.410;2022-07-11T10:22:35;20.90;99.90
45042;DHT22;30779;52.096;4.410;2022-07-11T10:29:26;21.20;99.90
45042;DHT22;30779;52.096;4.410;2022-07-11T10:35:30;21.50;99.90
45042;DHT22;30779;52.096;4.410;2022-07-11T10:38:31;21.70;99.90
45042;DHT22;30779;52.096;4.410;2022-07-11T11:23:11;24.90;99.90
45042;DHT22;30779;52.096;4.410;2022-07-11T11:26:20;25.10;99.90
45042;DHT22;30779;52.096;4.410;2022-07-11T11:29:25;25.40;99.90
45042;DHT22;30779;52.096;4.410;2022-07-11T11:32:30;25.90;99.90
45042;DHT22;30779;52.096;4.410;2022-07-11T11:35:31;25.30;99.90
45042;DHT22;30779;52.096;4.410;2022-07-11T11:38:36;24.80;99.90
45042;DHT22;30779;52.096;4.410;2022-07-11T11:41:37;24.70;99.90
45042;DHT22;30779;52.096;4.410;2022-07-11T11:45:07;24.40;99.90
45042;DHT22;30779;52.096;4.410;2022-07-11T11:48:11;23.90;99.90
45042;DHT22;30779;52.096;4.410;2022-07-11T11:51:15;23.60;99.90
45042;DHT22;30779;52.096;4.410;2022-07-11T11:54:24;23.90;99.90
45042;DHT22;30779;52.096;4.410;2022-07-11T11:57:27;24.30;99.90
45042;DHT22;30779;52.096;4.410;2022-07-11T12:00:28;24.60;99.90
45042;DHT22;30779;52.096;4.410;2022-07-11T12:03:54;25.00;99.90
45042;DHT22;30779;52.096;4.410;2022-07-11T12:06:55;25.10;99.90
45042;DHT22;30779;52.096;4.410;2022-07-11T12:09:58;25.40;99.90
45042;DHT22;30779;52.096;4.410;2022-07-11T12:12:59;25.70;99.90
45042;DHT22;30779;52.096;4.410;2022-07-11T12:16:00;25.70;99.90
45042;DHT22;30779;52.096;4.410;2022-07-11T12:19:21;25.80;99.90
45042;DHT22;30779;52.096;4.410;2022-07-11T12:22:22;25.80;99.90
45042;DHT22;30779;52.096;4.410;2022-07-11T12:25:23;25.60;99.90
45042;DHT22;30779;52.096;4.410;2022-07-11T12:28:23;25.90;99.90
45042;DHT22;30779;52.096;4.410;2022-07-11T12:31:24;26.10;99.90
45042;DHT22;30779;52.096;4.410;2022-07-11T12:34:35;25.90;99.90
45042;DHT22;30779;52.096;4.410;2022-07-11T12:37:41;25.80;99.90
45042;DHT22;30779;52.096;4.410;2022-07-11T12:41:00;25.70;99.90
45042;DHT22;30779;52.096;4.410;2022-07-11T12:44:01;25.60;99.90
45042;DHT22;30779;52.096;4.410;2022-07-11T12:47:25;25.60;99.90
45042;DHT22;30779;52.096;4.410;2022-07-11T12:50:27;25.50;99.90
45042;DHT22;30779;52.096;4.410;2022-07-11T12:53:29;25.70;99.90
45042;DHT22;30779;52.096;4.410;2022-07-11T12:56:29;25.60;99.90
45042;DHT22;30779;52.096;4.410;2022-07-11T12:59:31;25.60;99.90
45042;DHT22;30779;52.096;4.410;2022-07-11T13:02:34;25.50;99.90
45042;DHT22;30779;52.096;4.410;2022-07-11T13:05:51;25.50;99.90
45042;DHT22;30779;52.096;4.410;2022-07-11T13:08:52;25.50;99.90
45042;DHT22;30779;52.096;4.410;2022-07-11T13:11:53;25.70;99.90
45042;DHT22;30779;52.096;4.410;2022-07-11T13:15:04;25.80;99.90
45042;DHT22;30779;52.096;4.410;2022-07-11T13:18:11;25.90;99.90
45042;DHT22;30779;52.096;4.410;2022-07-11T13:21:11;25.50;99.90
45042;DHT22;30779;52.096;4.410;2022-07-11T13:24:12;25.80;99.90
45042;DHT22;30779;52.096;4.410;2022-07-11T13:27:13;25.80;99.90
45042;DHT22;30779;52.096;4.410;2022-07-11T13:30:15;26.00;99.90
45042;DHT22;30779;52.096;4.410;2022-07-11T13:36:18;26.60;99.90
45042;DHT22;30779;52.096;4.410;2022-07-11T13:39:18;26.40;99.90
45042;DHT22;30779;52.096;4.410;2022-07-11T13:42:19;26.40;99.90
45042;DHT22;30779;52.096;4.410;2022-07-11T13:45:22;26.30;99.90
45042;DHT22;30779;52.096;4.410;2022-07-11T13:48:23;26.30;99.90
45042;DHT22;30779;52.096;4.410;2022-07-11T13:51:23;26.00;99.90
45042;DHT22;30779;52.096;4.410;2022-07-11T13:54:24;25.80;99.90
45042;DHT22;30779;52.096;4.410;2022-07-11T13:57:25;25.70;99.90
45042;DHT22;30779;52.096;4.410;2022-07-11T14:00:27;26.10;99.90
45042;DHT22;30779;52.096;4.410;2022-07-11T14:03:32;26.00;99.90
45042;DHT22;30779;52.096;4.410;2022-07-11T14:06:34;26.00;99.90
45042;DHT22;30779;52.096;4.410;2022-07-11T14:09:38;25.80;99.90
45042;DHT22;30779;52.096;4.410;2022-07-11T14:12:39;25.50;99.90
45042;DHT22;30779;52.096;4.410;2022-07-11T14:15:40;25.30;99.90
45042;DHT22;30779;52.096;4.410;2022-07-11T14:18:41;25.10;99.90
45042;DHT22;30779;52.096;4.410;2022-07-11T14:21:42;25.30;99.90
45042;DHT22;30779;52.096;4.410;2022-07-11T14:24:43;25.30;99.90
45042;DHT22;30779;52.096;4.410;2022-07-11T14:27:47;25.10;99.90
45042;DHT22;30779;52.096;4.410;2022-07-11T14:30:47;25.00;99.90
45042;DHT22;30779;52.096;4.410;2022-07-11T14:33:50;25.10;99.90
45042;DHT22;30779;52.096;4.410;2022-07-11T14:36:51;24.90;99.90
45042;DHT22;30779;52.096;4.410;2022-07-11T14:39:52;24.70;99.90
45042;DHT22;30779;52.096;4.410;2022-07-11T14:42:52;24.60;99.90
45042;DHT22;30779;52.096;4.410;2022-07-11T14:45:54;24.60;99.90
45042;DHT22;30779;52.096;4.410;2022-07-11T14:48:54;24.50;99.90
45042;DHT22;30779;52.096;4.410;2022-07-11T14:51:55;24.70;99.90
45042;DHT22;30779;52.096;4.410;2022-07-11T14:54:56;24.80;99.90
45042;DHT22;30779;52.096;4.410;2022-07-11T14:57:57;24.80;99.90
45042;DHT22;30779;52.096;4.410;2022-07-11T15:00:58;24.60;99.90
45042;DHT22;30779;52.096;4.410;2022-07-11T15:03:59;24.60;99.90
45042;DHT22;30779;52.096;4.410;2022-07-11T15:07:03;24.60;99.90
45042;DHT22;30779;52.096;4.410;2022-07-11T15:10:22;24.40;99.90
45042;DHT22;30779;52.096;4.410;2022-07-11T15:13:41;24.40;99.90
45042;DHT22;30779;52.096;4.410;2022-07-11T15:16:42;24.50;99.90
45042;DHT22;30779;52.096;4.410;2022-07-11T15:19:46;24.60;99.90
45042;DHT22;30779;52.096;4.410;2022-07-11T15:22:47;24.40;99.90
45042;DHT22;30779;52.096;4.410;2022-07-11T15:25:47;24.30;99.90
45042;DHT22;30779;52.096;4.410;2022-07-11T15:28:48;24.30;99.90
45042;DHT22;30779;52.096;4.410;2022-07-11T15:31:48;24.40;99.90
45042;DHT22;30779;52.096;4.410;2022-07-11T15:34:49;24.10;99.90
45042;DHT22;30779;52.096;4.410;2022-07-11T15:37:51;24.00;99.90
45042;DHT22;30779;52.096;4.410;2022-07-11T15:40:52;23.80;99.90
45042;DHT22;30779;52.096;4.410;2022-07-11T15:43:54;23.80;99.90
45042;DHT22;30779;52.096;4.410;2022-07-11T15:46:55;23.80;99.90
45042;DHT22;30779;52.096;4.410;2022-07-11T15:49:56;23.60;99.90
45042;DHT22;30779;52.096;4.410;2022-07-11T15:52:57;23.60;99.90
45042;DHT22;30779;52.096;4.410;2022-07-11T15:55:57;23.60;99.90
45042;DHT22;30779;52.096;4.410;2022-07-11T15:58:58;23.70;99.90
45042;DHT22;30779;52.096;4.410;2022-07-11T16:01:59;23.60;99.90
45042;DHT22;30779;52.096;4.410;2022-07-11T16:05:00;23.80;99.90
45042;DHT22;30779;52.096;4.410;2022-07-11T16:08:00;23.70;99.90
45042;DHT22;30779;52.096;4.410;2022-07-11T16:11:01;23.80;99.90
45042;DHT22;30779;52.096;4.410;2022-07-11T16:14:02;23.90;99.90
45042;DHT22;30779;52.096;4.410;2022-07-11T16:17:03;23.80;99.90
45042;DHT22;30779;52.096;4.410;2022-07-11T16:20:05;23.70;99.90
45042;DHT22;30779;52.096;4.410;2022-07-11T16:23:06;23.60;99.90
45042;DHT22;30779;52.096;4.410;2022-07-11T16:26:07;23.60;99.90
45042;DHT22;30779;52.096;4.410;2022-07-11T16:29:07;23.50;99.90
45042;DHT22;30779;52.096;4.410;2022-07-11T16:32:08;23.40;99.90
45042;DHT22;30779;52.096;4.410;2022-07-11T16:35:09;23.40;99.90
45042;DHT22;30779;52.096;4.410;2022-07-11T16:38:10;23.30;99.90
45042;DHT22;30779;52.096;4.410;2022-07-11T16:41:11;23.30;99.90
45042;DHT22;30779;52.096;4.410;2022-07-11T16:44:30;23.10;99.90
45042;DHT22;30779;52.096;4.410;2022-07-11T16:47:30;23.00;99.90
45042;DHT22;30779;52.096;4.410;2022-07-11T16:50:31;22.80;99.90
45042;DHT22;30779;52.096;4.410;2022-07-11T16:53:32;22.70;99.90
45042;DHT22;30779;52.096;4.410;2022-07-11T16:56:33;22.80;99.90
45042;DHT22;30779;52.096;4.410;2022-07-11T16:59:34;22.70;99.90
45042;DHT22;30779;52.096;4.410;2022-07-11T17:02:35;22.50;99.90
45042;DHT22;30779;52.096;4.410;2022-07-11T17:05:37;22.50;99.90
45042;DHT22;30779;52.096;4.410;2022-07-11T17:08:38;22.50;99.90
45042;DHT22;30779;52.096;4.410;2022-07-11T17:11:45;22.30;99.90
45042;DHT22;30779;52.096;4.410;2022-07-11T17:14:45;22.30;99.90
45042;DHT22;30779;52.096;4.410;2022-07-11T17:17:46;22.30;99.90
45042;DHT22;30779;52.096;4.410;2022-07-11T17:20:47;22.20;99.90
45042;DHT22;30779;52.096;4.410;2022-07-11T17:23:48;22.20;99.90
45042;DHT22;30779;52.096;4.410;2022-07-11T17:26:49;22.20;99.90
45042;DHT22;30779;52.096;4.410;2022-07-11T17:29:50;22.10;99.90
45042;DHT22;30779;52.096;4.410;2022-07-11T17:32:50;22.00;99.90
45042;DHT22;30779;52.096;4.410;2022-07-11T17:35:51;21.90;99.90
45042;DHT22;30779;52.096;4.410;2022-07-11T17:38:53;21.90;99.90
45042;DHT22;30779;52.096;4.410;2022-07-11T17:41:53;21.90;99.90
45042;DHT22;30779;52.096;4.410;2022-07-11T17:44:54;22.10;99.90
45042;DHT22;30779;52.096;4.410;2022-07-11T17:47:55;22.10;99.90
45042;DHT22;30779;52.096;4.410;2022-07-11T17:50:56;22.10;99.90
45042;DHT22;30779;52.096;4.410;2022-07-11T17:53:56;22.00;99.90
45042;DHT22;30779;52.096;4.410;2022-07-11T17:56:57;21.90;99.90
45042;DHT22;30779;52.096;4.410;2022-07-11T17:59:58;21.80;99.90
45042;DHT22;30779;52.096;4.410;2022-07-11T18:02:59;21.70;99.90
45042;DHT22;30779;52.096;4.410;2022-07-11T18:05:59;21.60;99.90
45042;DHT22;30779;52.096;4.410;2022-07-11T18:09:00;21.70;99.90
45042;DHT22;30779;52.096;4.410;2022-07-11T18:12:00;21.60;99.90
45042;DHT22;30779;52.096;4.410;2022-07-11T18:15:05;21.60;99.90
45042;DHT22;30779;52.096;4.410;2022-07-11T18:18:06;21.60;99.90
45042;DHT22;30779;52.096;4.410;2022-07-11T18:21:06;21.50;99.90
45042;DHT22;30779;52.096;4.410;2022-07-11T18:24:07;21.50;99.90
45042;DHT22;30779;52.096;4.410;2022-07-11T18:27:08;21.50;99.90
45042;DHT22;30779;52.096;4.410;2022-07-11T18:30:10;21.50;99.90
45042;DHT22;30779;52.096;4.410;2022-07-11T18:33:11;21.50;99.90
45042;DHT22;30779;52.096;4.410;2022-07-11T18:36:12;21.50;99.90
45042;DHT22;30779;52.096;4.410;2022-07-11T18:39:12;21.50;99.90
45042;DHT22;30779;52.096;4.410;2022-07-11T18:42:31;21.50;99.90
45042;DHT22;30779;52.096;4.410;2022-07-11T18:45:32;21.40;99.90
45042;DHT22;30779;52.096;4.410;2022-07-11T18:48:32;21.40;99.90
45042;DHT22;30779;52.096;4.410;2022-07-11T18:51:33;21.40;99.90
45042;DHT22;30779;52.096;4.410;2022-07-11T18:54:34;21.30;99.90
45042;DHT22;30779;52.096;4.410;2022-07-11T18:57:34;21.30;99.90
45042;DHT22;30779;52.096;4.410;2022-07-11T19:00:35;21.30;99.90
45042;DHT22;30779;52.096;4.410;2022-07-11T19:03:36;21.30;99.90
45042;DHT22;30779;52.096;4.410;2022-07-11T19:06:37;21.30;99.90
45042;DHT22;30779;52.096;4.410;2022-07-11T19:09:38;21.20;99.90
45042;DHT22;30779;52.096;4.410;2022-07-11T19:12:38;21.10;99.90
45042;DHT22;30779;52.096;4.410;2022-07-11T19:15:39;21.10;99.90
45042;DHT22;30779;52.096;4.410;2022-07-11T19:18:40;21.10;99.90
45042;DHT22;30779;52.096;4.410;2022-07-11T19:21:40;21.00;99.90
45042;DHT22;30779;52.096;4.410;2022-07-11T19:24:42;20.90;99.90
45042;DHT22;30779;52.096;4.410;2022-07-11T19:27:43;20.80;99.90
45042;DHT22;30779;52.096;4.410;2022-07-11T19:30:44;20.80;99.90
45042;DHT22;30779;52.096;4.410;2022-07-11T19:33:45;20.70;99.90
45042;DHT22;30779;52.096;4.410;2022-07-11T19:36:45;20.60;99.90
45042;DHT22;30779;52.096;4.410;2022-07-11T19:39:46;20.60;99.90
45042;DHT22;30779;52.096;4.410;2022-07-11T19:42:47;20.50;99.90
45042;DHT22;30779;52.096;4.410;2022-07-11T19:45:47;20.40;99.90
45042;DHT22;30779;52.096;4.410;2022-07-11T19:48:48;20.30;99.90
45042;DHT22;30779;52.096;4.410;2022-07-11T19:51:49;20.20;99.90
45042;DHT22;30779;52.096;4.410;2022-07-11T19:54:50;20.20;99.90
45042;DHT22;30779;52.096;4.410;2022-07-11T19:58:09;20.10;99.90
45042;DHT22;30779;52.096;4.410;2022-07-11T20:01:09;20.10;99.90
45042;DHT22;30779;52.096;4.410;2022-07-11T20:04:11;20.00;99.90